HOURLY OBS INDEX

016

Northwest Pastoral

COOBER PEDY AIRPORT

Site: 016090
Alt: 225.0m
4km SW of COOBER PEDY


  Time     Wind        Temp  DP   Baro     Rain since   Rain past  Vis(m), Cloud(base in m), Weather
  local        km/h                         9am  last   hr   10m    
Mon 09:30    E 13/ 15  10.8  6.0  1028.4    0.0   0.0   0.0   0.0   10000 
Mon 10:00    E 13/ 17  12.4  6.5  1028.7    0.0   0.0   0.0   0.0   10000 
Mon 10:30    E 13/ 17  13.3  5.9  1028.6    0.0   0.0   0.0   0.0   10000 
Mon 11:00    E 11/ 19  14.1  6.0  1028.4    0.0   0.0   0.0   0.0   10000 
Mon 11:30    E 11/ 15  14.4  5.5  1028.1    0.0   0.0   0.0   0.0   10000 
Mon 12:00  ESE  7/ 15  15.5  5.4  1027.8    0.0   0.0   0.0   0.0   10000 
Mon 12:30    E 11/ 19  15.4  4.8  1027.3    0.0   0.0   0.0   0.0   10000 
Mon 13:00    E 11/ 20  15.9  4.3  1026.4    0.0   0.0   0.0   0.0   10000 
Mon 13:30    E 11/ 20  16.6  4.0  1026.0    0.0   0.0   0.0   0.0   10000 
Mon 14:00   NE 13/ 26  16.5  3.2  1025.7    0.0   0.0   0.0   0.0   10000 
Mon 14:30    E 11/ 20  16.9  3.9  1025.3    0.0   0.0   0.0   0.0   10000 

ERNABELLA (PUKATJA)

Site: 016097
Alt: 703.2m
354km WNW of OODNADATTA


  Time     Wind        Temp  DP   Baro     Rain since   Rain past  Vis(m), Cloud(base in m), Weather
  local        km/h                         9am  last   hr   10m    
Mon 09:30  ENE 17/ 20   9.3  1.0  1027.2    0.0   0.0   0.0   0.0   ----- 
Mon 10:00  ENE 22/ 28  10.3  1.2  1027.4    0.0   0.0   0.0   0.0   ----- 
Mon 10:30  ENE 24/ 30  11.2  1.2  1027.3    0.0   0.0   0.0   0.0   ----- 
Mon 11:00  ENE 24/ 32  11.9  1.0  1027.3    0.0   0.0   0.0   0.0   ----- 
Mon 11:30  ENE 22/ 32  12.8  0.9  1027.2    0.0   0.0   0.0   0.0   ----- 
Mon 12:00  ENE 24/ 33  12.6 -0.3  1026.8    0.0   0.0   0.0   0.0   ----- 
Mon 12:30  ENE 22/ 30  13.4 -0.3  1025.9    0.0   0.0   0.0   0.0   ----- 
Mon 13:00   NE 24/ 35  13.6 -0.8  1025.3    0.0   0.0   0.0   0.0   ----- 
Mon 13:30   NE 20/ 32  14.5 -0.8  1024.7    0.0   0.0   0.0   0.0   ----- 
Mon 14:00   NE 20/ 33  15.2 -0.9  1024.1    0.0   0.0   0.0   0.0   ----- 
Mon 14:30  ENE 22/ 30  15.5 -2.0  1023.8    0.0   0.0   0.0   0.0   ----- 

ROXBY DOWNS (OLYMPIC DAM AERODROME)

Site: 016096
Alt: 98.5m
76km N of WOOMERA


  Time     Wind        Temp  DP   Baro     Rain since   Rain past  Vis(m), Cloud(base in m), Weather
  local        km/h                         9am  last   hr   10m    
Mon 09:30  SSW  6/  7   7.1  5.4  1028.2    0.0   0.0   0.0   0.0   10000 
Mon 10:00    S  7/ 11   7.8  5.4  1028.5    0.0   0.0   0.0   0.0   10000 
Mon 10:30    S  7/ 11   9.3  6.4  1028.3    0.0   0.0   0.0   0.0   10000 
Mon 11:00  SSE  9/ 15  11.8  7.5  1028.4    0.0   0.0   0.0   0.0   10000 
Mon 11:30   SE 11/ 15  12.4  7.1  1028.2    0.0   0.0   0.0   0.0   10000 
Mon 12:00  SSE  9/ 13  13.4  7.0  1028.0    0.0   0.0   0.0   0.0   10000 
Mon 12:30    S  9/ 13  14.0  7.1  1027.3    0.0   0.0   0.0   0.0   10000 
Mon 13:00    S  9/ 13  14.8  7.1  1026.8    0.0   0.0   0.0   0.0   10000 
Mon 13:30  SSE  9/ 15  14.9  6.0  1026.0    0.0   0.0   0.0   0.0   10000 
Mon 14:00   SE 11/ 17  15.5  6.0  1025.8    0.0   0.0   0.0   0.0   10000 
Mon 14:30    S 11/ 17  16.3  6.2  1025.6    0.0   0.0   0.0   0.0   10000 

TARCOOLA AERO

Site: 016098
Alt: 123.0m
180km NNE of CEDUNA


  Time     Wind        Temp  DP   Baro     Rain since   Rain past  Vis(m), Cloud(base in m), Weather
  local        km/h                         9am  last   hr   10m    
Mon 09:30   NE  2/  7   8.9  5.3  1029.2    0.0   0.0   0.0   0.0   ----- 
Mon 10:00  ENE  7/  9  11.4  6.3  1029.4    0.0   0.0   0.0   0.0   ----- 
Mon 10:30  ENE 11/ 13  12.7  7.2  1029.4    0.0   0.0   0.0   0.0   ----- 
Mon 11:00  ENE  9/ 13  14.0  7.3  1029.2    0.0   0.0   0.0   0.0   ----- 
Mon 11:30  ENE 13/ 17  14.4  7.2  1028.7    0.0   0.0   0.0   0.0   ----- 
Mon 12:00    E 11/ 17  15.0  6.3  1028.3    0.0   0.0   0.0   0.0   ----- 
Mon 12:30   NE  9/ 15  15.5  5.4  1028.0    0.0   0.0   0.0   0.0   ----- 
Mon 13:00  ENE  9/ 17  16.5  4.9  1027.5    0.0   0.0   0.0   0.0   ----- 
Mon 13:30    E  9/ 13  16.7  4.4  1027.1    0.0   0.0   0.0   0.0   ----- 
Mon 14:00   NE 11/ 17  16.8  3.8  1026.7    0.0   0.0   0.0   0.0   ----- 
Mon 14:30  NNE 11/ 19  17.1  3.1  1026.3    0.0   0.0   0.0   0.0   ----- 

WOOMERA AERODROME

Site: 016001
Alt: 166.6m
1km NW of WOOMERA


  Time     Wind        Temp  DP   Baro     Rain since   Rain past  Vis(m), Cloud(base in m), Weather
  local        km/h                         9am  last   hr   10m    
Mon 09:30    S 13/ 17   7.2  7.1  1028.5    0.0   0.0   0.0   0.0     250|OC  30 
Mon 10:00  SSE  9/ 13   7.3  7.2  1028.6    0.0   0.0   0.0   0.0     450|OC  60 
Mon 10:30  SSE  9/ 13   8.0  7.9  1028.5    0.0   0.0   0.0   0.0     700|OC  30 
Mon 11:00  ESE 11/ 15   8.4  8.3  1028.6    0.0   0.0   0.0   0.0    8000|OC  60 
Mon 11:09  ESE 11/ 15   8.8  8.7  1028.5    0.0   0.0  ----   0.0   10000|OC  90 
Mon 11:30  ESE 13/ 17   9.4  9.3  1028.5    0.0   0.0   0.0   0.0   10000|BR 120 
Mon 11:41   SE 11/ 15   9.7  8.8  1028.2    0.0   0.0  ----   0.0   10000|SC 120 
Mon 12:00   SE  9/ 13  10.7  7.6  1028.2    0.0   0.0   0.0   0.0   10000 
Mon 12:30  ESE  9/ 15  12.1  6.8  1027.6    0.0   0.0   0.0   0.0   10000 
Mon 13:00  ESE 13/ 20  14.0  6.6  1027.1    0.0   0.0   0.0   0.0   10000 
Mon 13:30   SE 11/ 17  14.3  6.2  1026.5    0.0   0.0   0.0   0.0   10000 
Mon 14:00    S 11/ 15  14.6  6.2  1026.3    0.0   0.0   0.0   0.0   10000 
Mon 14:30    S 11/ 15  15.1  5.9  1026.4    0.0   0.0   0.0   0.0   10000